createdAt,value
2023-01-07T00:01:24.004Z,4.27
2023-01-07T00:03:53.297Z,4.50
2023-01-07T00:06:22.920Z,4.40
2023-01-07T00:08:52.091Z,4.70
2023-01-07T00:11:23.075Z,4.90
2023-01-07T00:13:52.706Z,5.03
2023-01-07T00:16:23.811Z,5.13
2023-01-07T00:18:52.683Z,4.87
2023-01-07T00:21:22.047Z,5.27
2023-01-07T00:23:50.563Z,4.87
2023-01-07T00:26:20.183Z,5.40
2023-01-07T00:28:50.111Z,5.60
2023-01-07T00:31:19.518Z,5.47
2023-01-07T00:34:06.349Z,5.30
2023-01-07T00:36:40.272Z,5.30
2023-01-07T00:39:10.952Z,5.20
2023-01-07T00:41:39.032Z,5.53
2023-01-07T00:44:08.107Z,6.03
2023-01-07T00:46:36.086Z,5.87
2023-01-07T00:49:05.622Z,6.57
2023-01-07T00:51:33.550Z,6.37
2023-01-07T00:54:01.370Z,7.43
2023-01-07T00:56:29.330Z,7.87
2023-01-07T00:58:57.687Z,8.57
2023-01-07T01:01:25.879Z,7.50
2023-01-07T01:03:53.963Z,7.43
2023-01-07T01:06:23.164Z,7.90
2023-01-07T01:08:51.543Z,7.73
2023-01-07T01:11:19.466Z,8.80
2023-01-07T01:13:47.660Z,8.23
2023-01-07T01:16:18.037Z,8.83
2023-01-07T01:18:47.083Z,8.83
2023-01-07T01:21:17.051Z,9.17
2023-01-07T01:23:46.685Z,10.03
2023-01-07T01:26:17.095Z,9.83
2023-01-07T01:28:45.955Z,9.77
2023-01-07T01:31:18.174Z,9.63
2023-01-07T01:33:49.446Z,9.63
2023-01-07T01:36:18.375Z,9.80
2023-01-07T01:38:47.544Z,9.63
2023-01-07T01:41:17.266Z,9.23
2023-01-07T01:43:47.386Z,9.53
2023-01-07T01:46:18.913Z,10.37
2023-01-07T01:48:51.309Z,10.57
2023-01-07T01:51:24.847Z,10.77
2023-01-07T01:53:56.340Z,10.97
2023-01-07T01:56:28.623Z,11.30
2023-01-07T01:59:01.094Z,12.07
2023-01-07T02:01:29.484Z,11.73
2023-01-07T02:03:58.867Z,12.20
2023-01-07T02:06:33.317Z,12.23
2023-01-07T02:09:02.780Z,11.90
2023-01-07T02:11:41.538Z,12.50
2023-01-07T02:14:26.806Z,12.13
2023-01-07T02:17:00.849Z,12.03
2023-01-07T02:20:14.839Z,12.40
2023-01-07T02:23:14.350Z,12.73
2023-01-07T02:26:12.249Z,13.80
2023-01-07T02:29:02.400Z,13.90
2023-01-07T02:31:56.250Z,13.43
2023-01-07T02:34:34.283Z,13.40
2023-01-07T02:37:08.947Z,13.73
2023-01-07T02:39:46.123Z,14.63
2023-01-07T02:42:24.344Z,13.60
2023-01-07T02:45:00.499Z,13.77
2023-01-07T02:47:35.131Z,13.87
2023-01-07T02:50:03.679Z,13.37
2023-01-07T02:52:34.442Z,14.57
2023-01-07T02:55:07.644Z,14.40
2023-01-07T02:58:01.874Z,14.43
2023-01-07T03:00:53.667Z,14.03
2023-01-07T03:03:36.593Z,12.67
2023-01-07T03:06:21.572Z,14.60
2023-01-07T03:09:04.082Z,14.17
2023-01-07T03:11:39.488Z,14.63
2023-01-07T03:14:15.401Z,15.67
2023-01-07T03:16:50.197Z,14.93
2023-01-07T03:19:23.365Z,14.73
2023-01-07T03:21:53.350Z,16.57
2023-01-07T03:24:24.239Z,16.13
2023-01-07T03:26:54.954Z,17.07
2023-01-07T03:29:24.166Z,16.27
2023-01-07T03:31:58.484Z,18.23
2023-01-07T03:34:30.572Z,17.60
2023-01-07T03:37:01.011Z,17.77
2023-01-07T03:39:32.045Z,17.90
2023-01-07T03:42:20.118Z,17.47
2023-01-07T03:44:48.040Z,18.43
2023-01-07T03:47:15.968Z,19.27
2023-01-07T03:49:45.383Z,18.93
2023-01-07T03:52:13.536Z,18.93
2023-01-07T03:54:42.006Z,19.63
2023-01-07T03:57:10.214Z,19.07
2023-01-07T03:59:38.203Z,19.60
2023-01-07T04:02:07.123Z,20.30
2023-01-07T04:04:35.175Z,20.40
2023-01-07T04:07:04.746Z,20.33
2023-01-07T04:09:32.976Z,20.87
2023-01-07T04:12:01.272Z,20.10
2023-01-07T04:14:29.287Z,20.67
2023-01-07T04:16:57.269Z,21.17
2023-01-07T04:19:25.200Z,20.50
2023-01-07T04:21:53.156Z,19.43
2023-01-07T04:24:22.445Z,19.90
2023-01-07T04:26:50.812Z,20.53
2023-01-07T04:29:20.968Z,20.77
2023-01-07T04:31:50.228Z,18.50
2023-01-07T04:34:18.496Z,19.83
2023-01-07T04:36:46.342Z,20.70
2023-01-07T04:39:14.389Z,20.77
2023-01-07T04:41:43.744Z,20.87
2023-01-07T04:44:11.708Z,20.20
2023-01-07T04:46:39.573Z,19.50
2023-01-07T04:49:08.064Z,20.37
2023-01-07T04:51:36.574Z,20.20
2023-01-07T04:54:05.633Z,19.53
2023-01-07T04:56:33.468Z,20.40
2023-01-07T04:59:03.280Z,19.90
2023-01-07T05:01:32.631Z,20.53
2023-01-07T05:04:01.179Z,19.43
2023-01-07T05:06:30.075Z,20.03
2023-01-07T05:08:58.449Z,20.63
2023-01-07T05:11:26.541Z,19.23
2023-01-07T05:14:00.300Z,21.37
2023-01-07T05:16:31.931Z,20.93
2023-01-07T05:19:03.809Z,20.17
2023-01-07T05:21:36.444Z,19.63
2023-01-07T05:24:05.046Z,20.20
2023-01-07T05:26:32.843Z,19.90
2023-01-07T05:29:00.889Z,19.63
2023-01-07T05:31:30.773Z,20.60
2023-01-07T05:33:58.705Z,19.10
2023-01-07T05:36:26.597Z,19.87
2023-01-07T05:38:55.718Z,18.87
2023-01-07T05:41:23.592Z,19.83
2023-01-07T05:43:51.745Z,19.63
2023-01-07T05:46:19.908Z,19.53
2023-01-07T05:48:49.230Z,19.40
2023-01-07T05:51:17.185Z,19.53
2023-01-07T05:53:45.113Z,19.87
2023-01-07T05:56:12.921Z,20.27
2023-01-07T05:58:40.763Z,19.00
2023-01-07T06:01:08.644Z,17.80
2023-01-07T06:03:36.857Z,18.97
2023-01-07T06:06:07.898Z,18.27
2023-01-07T06:08:36.384Z,18.83
2023-01-07T06:11:04.951Z,17.80
2023-01-07T06:13:32.933Z,17.63
2023-01-07T06:16:01.360Z,16.70
2023-01-07T06:18:29.471Z,17.50
2023-01-07T06:20:57.334Z,18.23
2023-01-07T06:23:26.780Z,17.77
2023-01-07T06:25:54.663Z,18.97
2023-01-07T06:28:22.538Z,17.67
2023-01-07T06:30:50.515Z,18.67
2023-01-07T06:33:18.913Z,18.47
2023-01-07T06:35:47.244Z,18.07
2023-01-07T06:38:15.140Z,18.43
2023-01-07T06:40:45.325Z,18.60
2023-01-07T06:43:13.295Z,18.30
2023-01-07T06:45:41.717Z,19.17
2023-01-07T06:48:09.680Z,18.43
2023-01-07T06:50:37.476Z,18.73
2023-01-07T06:53:05.638Z,18.47
2023-01-07T06:55:33.476Z,20.10
2023-01-07T06:58:02.703Z,19.13
2023-01-07T07:00:30.605Z,19.23
2023-01-07T07:02:58.645Z,19.43
2023-01-07T07:05:26.776Z,18.57
2023-01-07T07:07:54.677Z,19.33
2023-01-07T07:10:22.630Z,19.43
2023-01-07T07:12:50.537Z,20.23
2023-01-07T07:15:19.919Z,20.17
2023-01-07T07:17:47.790Z,20.20
2023-01-07T07:20:15.795Z,19.63
2023-01-07T07:22:46.199Z,20.20
2023-01-07T07:25:14.127Z,19.67
2023-01-07T07:27:42.073Z,20.20
2023-01-07T07:30:10.865Z,19.80
2023-01-07T07:32:40.128Z,19.70
2023-01-07T07:35:08.721Z,20.20
2023-01-07T07:37:36.673Z,19.67
2023-01-07T07:40:05.105Z,18.60
2023-01-07T07:42:32.980Z,19.30
2023-01-07T07:45:20.871Z,18.93
2023-01-07T07:47:50.060Z,20.10
2023-01-07T07:50:17.989Z,20.80
2023-01-07T07:52:46.065Z,20.00
2023-01-07T07:55:20.742Z,21.20
2023-01-07T07:57:55.017Z,20.33
2023-01-07T08:00:23.141Z,21.40
2023-01-07T08:02:52.358Z,21.37
2023-01-07T08:05:20.564Z,24.10
2023-01-07T08:07:48.376Z,22.60
2023-01-07T08:10:16.221Z,20.97
2023-01-07T08:12:44.036Z,21.30
2023-01-07T08:15:12.311Z,21.70
2023-01-07T08:17:41.249Z,19.50
2023-01-07T08:20:11.981Z,20.80
2023-01-07T08:22:39.980Z,21.27
2023-01-07T08:25:08.597Z,20.70
2023-01-07T08:27:36.506Z,20.70
2023-01-07T08:30:04.791Z,20.30
2023-01-07T08:32:32.685Z,19.77
2023-01-07T08:35:00.566Z,19.20
2023-01-07T08:37:32.167Z,20.27
2023-01-07T08:40:00.050Z,20.53
2023-01-07T08:42:29.301Z,19.83
2023-01-07T08:44:57.184Z,19.57
2023-01-07T08:47:27.143Z,21.83
2023-01-07T08:49:55.230Z,22.73
2023-01-07T08:52:23.138Z,21.20
2023-01-07T08:54:52.696Z,21.80
2023-01-07T08:57:20.559Z,21.73
2023-01-07T08:59:48.431Z,21.60
2023-01-07T09:02:17.891Z,21.87
2023-01-07T09:04:45.770Z,21.23
2023-01-07T09:07:13.694Z,20.67
2023-01-07T09:09:42.945Z,20.70
2023-01-07T09:12:12.181Z,20.77
2023-01-07T09:14:40.113Z,20.17
2023-01-07T09:17:08.088Z,20.87
2023-01-07T09:19:36.019Z,20.37
2023-01-07T09:22:03.886Z,19.77
2023-01-07T09:24:31.713Z,19.80
2023-01-07T09:26:59.553Z,18.87
2023-01-07T09:29:28.751Z,18.53
2023-01-07T09:31:56.762Z,18.13
2023-01-07T09:34:24.707Z,17.90
2023-01-07T09:36:52.580Z,17.13
2023-01-07T09:39:20.450Z,16.00
2023-01-07T09:41:55.911Z,16.90
2023-01-07T09:44:39.704Z,15.70
2023-01-07T09:47:09.731Z,16.80
2023-01-07T09:49:38.009Z,16.47
2023-01-07T09:52:12.575Z,16.93
2023-01-07T09:54:41.928Z,17.53
2023-01-07T09:57:12.595Z,16.63
2023-01-07T09:59:41.824Z,14.63
2023-01-07T10:02:25.461Z,13.63
2023-01-07T10:04:59.593Z,13.50
2023-01-07T10:07:35.357Z,14.30
2023-01-07T10:10:13.429Z,12.50
2023-01-07T10:12:48.882Z,12.00
2023-01-07T10:15:45.803Z,11.40
2023-01-07T10:18:31.479Z,11.30
2023-01-07T10:21:07.189Z,10.83
2023-01-07T10:23:39.575Z,10.67
2023-01-07T10:26:14.541Z,9.33
2023-01-07T10:28:49.737Z,9.57
2023-01-07T10:31:22.258Z,9.33
2023-01-07T10:33:51.181Z,9.20
2023-01-07T10:36:26.133Z,9.43
2023-01-07T10:39:03.144Z,9.20
2023-01-07T10:41:40.691Z,9.17
2023-01-07T10:44:34.005Z,8.77
2023-01-07T10:47:14.317Z,8.60
2023-01-07T10:49:59.412Z,8.47
2023-01-07T10:52:44.122Z,7.80
2023-01-07T10:55:31.590Z,7.70
2023-01-07T10:57:59.546Z,8.17
2023-01-07T11:00:27.601Z,6.80
2023-01-07T11:03:00.287Z,6.43
2023-01-07T11:05:36.750Z,6.27
2023-01-07T11:08:08.853Z,6.30
2023-01-07T11:10:38.674Z,5.73
2023-01-07T11:13:09.966Z,5.87
2023-01-07T11:15:41.887Z,6.00
2023-01-07T11:18:17.565Z,5.53
2023-01-07T11:20:48.421Z,5.00
2023-01-07T11:23:30.842Z,5.37
2023-01-07T11:26:11.692Z,4.70
2023-01-07T11:28:44.648Z,4.80
2023-01-07T11:31:12.527Z,4.70
2023-01-07T11:34:02.008Z,4.20
2023-01-07T11:36:42.253Z,3.90
2023-01-07T11:39:13.294Z,3.77
2023-01-07T11:41:53.569Z,3.90
2023-01-07T11:44:22.025Z,3.80
2023-01-07T11:46:50.301Z,3.47
2023-01-07T11:49:24.927Z,3.40
2023-01-07T11:51:53.310Z,3.60
2023-01-07T11:54:23.636Z,2.90
2023-01-07T11:56:54.122Z,3.10
2023-01-07T11:59:30.123Z,3.10
2023-01-07T12:02:00.402Z,3.17
2023-01-07T12:04:32.264Z,2.90
2023-01-07T12:07:03.375Z,3.00
2023-01-07T12:09:38.122Z,2.60
2023-01-07T12:12:34.760Z,2.60
2023-01-07T12:15:05.735Z,3.10
2023-01-07T12:17:35.690Z,2.53
2023-01-07T12:20:47.323Z,3.30
2023-01-07T12:23:28.608Z,3.30
2023-01-07T12:26:04.313Z,2.90
2023-01-07T12:28:54.438Z,2.70
2023-01-07T12:31:32.269Z,3.10
2023-01-07T12:34:08.682Z,2.73
2023-01-07T12:36:45.338Z,3.50
2023-01-07T12:39:19.366Z,2.83
2023-01-07T12:41:56.717Z,2.87
2023-01-07T12:44:25.020Z,2.50
2023-01-07T12:47:31.120Z,2.73
2023-01-07T12:49:58.523Z,2.50
2023-01-07T12:52:37.541Z,2.40
2023-01-07T12:55:14.659Z,2.40
2023-01-07T12:57:44.067Z,2.50
2023-01-07T13:00:18.193Z,2.90
2023-01-07T13:02:51.858Z,3.30
2023-01-07T13:05:24.578Z,3.90
2023-01-07T13:07:57.763Z,4.50
2023-01-07T13:10:29.108Z,3.20
2023-01-07T13:13:02.255Z,3.53
2023-01-07T13:15:33.620Z,3.47
2023-01-07T13:18:13.565Z,2.80
2023-01-07T13:21:01.822Z,2.63
2023-01-07T13:23:46.086Z,2.50
2023-01-07T13:26:31.015Z,2.20
2023-01-07T13:29:12.367Z,2.20
2023-01-07T13:32:08.724Z,2.40
2023-01-07T13:34:44.896Z,2.20
2023-01-07T13:37:34.403Z,2.20
2023-01-07T13:40:39.536Z,2.30
2023-01-07T13:43:21.035Z,2.07
2023-01-07T13:45:53.004Z,2.30
2023-01-07T13:48:24.880Z,2.10
2023-01-07T13:50:59.380Z,2.03
2023-01-07T13:53:46.763Z,1.90
2023-01-07T13:56:38.288Z,2.00
2023-01-07T13:59:30.841Z,2.27
2023-01-07T14:02:25.411Z,2.00
2023-01-07T14:05:05.755Z,2.40
2023-01-07T14:07:45.645Z,2.00
2023-01-07T14:10:20.276Z,2.20
2023-01-07T14:13:06.097Z,2.13
2023-01-07T14:15:53.849Z,2.20
2023-01-07T14:18:47.056Z,2.73
2023-01-07T14:21:27.553Z,2.23
2023-01-07T14:24:18.787Z,2.70
2023-01-07T14:26:56.409Z,2.60
2023-01-07T14:29:42.071Z,2.50
2023-01-07T14:32:28.018Z,2.63
2023-01-07T14:35:02.760Z,2.50
2023-01-07T14:37:34.394Z,2.50
2023-01-07T14:40:03.299Z,2.60
2023-01-07T14:42:48.928Z,2.47
2023-01-07T14:45:55.767Z,2.33
2023-01-07T14:48:35.852Z,2.87
2023-01-07T14:51:29.927Z,2.67
2023-01-07T14:54:30.834Z,2.57
2023-01-07T14:57:07.363Z,2.57
2023-01-07T15:00:26.415Z,2.60
2023-01-07T15:03:17.905Z,2.77
2023-01-07T15:06:01.731Z,2.60
2023-01-07T15:08:58.810Z,2.80
2023-01-07T15:11:45.140Z,2.33
2023-01-07T15:14:38.856Z,2.23
2023-01-07T15:17:07.775Z,2.30
2023-01-07T15:19:40.194Z,2.30
2023-01-07T15:22:28.373Z,1.90
2023-01-07T15:25:05.286Z,2.30
2023-01-07T15:27:42.644Z,2.13
2023-01-07T15:30:23.131Z,2.20
2023-01-07T15:33:00.007Z,1.80
2023-01-07T15:35:34.399Z,1.80
2023-01-07T15:38:04.989Z,2.00
2023-01-07T15:40:33.108Z,2.40
2023-01-07T15:43:01.244Z,2.60
2023-01-07T15:45:29.817Z,2.80
2023-01-07T15:48:07.723Z,3.10
2023-01-07T15:50:37.678Z,3.20
2023-01-07T15:53:19.509Z,3.17
2023-01-07T15:55:55.040Z,3.00
2023-01-07T15:58:27.716Z,3.20
2023-01-07T16:00:59.347Z,2.90
2023-01-07T16:03:28.667Z,2.80
2023-01-07T16:05:59.624Z,3.07
2023-01-07T16:08:31.937Z,2.90
2023-01-07T16:11:02.752Z,2.50
2023-01-07T16:13:31.855Z,2.70
2023-01-07T16:16:03.123Z,2.37
2023-01-07T16:18:32.251Z,2.20
2023-01-07T16:21:04.670Z,2.17
2023-01-07T16:23:34.721Z,2.03
2023-01-07T16:26:05.812Z,2.23
2023-01-07T16:28:35.936Z,2.10
2023-01-07T16:31:06.674Z,3.30
2023-01-07T16:33:35.649Z,2.13
2023-01-07T16:36:08.202Z,1.93
2023-01-07T16:38:37.503Z,2.10
2023-01-07T16:41:05.677Z,2.00
2023-01-07T16:43:44.922Z,2.13
2023-01-07T16:46:27.331Z,1.90
2023-01-07T16:49:19.467Z,2.20
2023-01-07T16:51:52.096Z,2.00
2023-01-07T16:54:30.108Z,1.80
2023-01-07T16:57:00.281Z,4.60
2023-01-07T16:59:31.053Z,1.80
2023-01-07T17:02:01.222Z,2.17
2023-01-07T17:04:31.008Z,2.20
2023-01-07T17:07:02.387Z,3.00
2023-01-07T17:09:35.726Z,2.80
2023-01-07T17:12:04.952Z,3.00
2023-01-07T17:14:48.758Z,2.07
2023-01-07T17:17:27.918Z,1.90
2023-01-07T17:20:03.557Z,2.20
2023-01-07T17:22:38.005Z,1.70
2023-01-07T17:25:09.864Z,3.00
2023-01-07T17:27:42.782Z,13.13
2023-01-07T17:30:16.970Z,1.63
2023-01-07T17:32:46.511Z,1.60
2023-01-07T17:35:17.837Z,1.67
2023-01-07T17:37:47.044Z,2.10
2023-01-07T17:40:15.425Z,1.97
2023-01-07T17:43:01.806Z,2.10
2023-01-07T17:45:29.745Z,1.77
2023-01-07T17:47:58.790Z,2.10
2023-01-07T17:50:33.396Z,1.70
2023-01-07T17:53:02.889Z,1.50
2023-01-07T17:55:32.739Z,1.63
2023-01-07T17:58:00.599Z,1.63
2023-01-07T18:00:30.629Z,1.47
2023-01-07T18:02:58.838Z,1.80
2023-01-07T18:05:27.628Z,1.53
2023-01-07T18:07:55.616Z,1.40
2023-01-07T18:10:29.339Z,1.87
2023-01-07T18:12:56.257Z,2.00
2023-01-07T18:15:26.457Z,2.90
2023-01-07T18:17:54.368Z,1.70
2023-01-07T18:20:23.486Z,3.13
2023-01-07T18:22:51.557Z,1.80
2023-01-07T18:25:21.131Z,1.60
2023-01-07T18:27:52.619Z,1.70
2023-01-07T18:30:23.189Z,1.60
2023-01-07T18:32:52.884Z,1.60
2023-01-07T18:35:22.618Z,1.60
2023-01-07T18:37:51.183Z,1.30
2023-01-07T18:40:19.586Z,1.83
2023-01-07T18:42:47.522Z,1.90
2023-01-07T18:45:16.693Z,1.50
2023-01-07T18:47:45.843Z,1.70
2023-01-07T18:50:14.124Z,8.53
2023-01-07T18:52:43.223Z,3.23
2023-01-07T18:55:12.487Z,3.83
2023-01-07T18:57:40.312Z,2.10
2023-01-07T19:00:09.621Z,2.83
2023-01-07T19:02:38.808Z,2.90
2023-01-07T19:05:07.554Z,7.93
2023-01-07T19:07:36.071Z,3.10
2023-01-07T19:10:03.908Z,1.73
2023-01-07T19:12:31.822Z,2.03
2023-01-07T19:14:59.637Z,2.50
2023-01-07T19:17:27.567Z,2.53
2023-01-07T19:19:56.764Z,2.40
2023-01-07T19:22:24.663Z,2.20
2023-01-07T19:24:52.661Z,2.50
2023-01-07T19:27:20.598Z,2.20
2023-01-07T19:29:48.458Z,1.87
2023-01-07T19:32:16.480Z,2.07
2023-01-07T19:34:44.323Z,1.60
2023-01-07T19:37:13.542Z,1.80
2023-01-07T19:39:41.355Z,1.87
2023-01-07T19:42:09.873Z,1.87
2023-01-07T19:44:38.333Z,1.60
2023-01-07T19:47:06.319Z,8.33
2023-01-07T19:49:35.620Z,2.60
2023-01-07T19:52:03.553Z,4.67
2023-01-07T19:54:32.711Z,2.63
2023-01-07T19:57:00.726Z,2.10
2023-01-07T19:59:28.606Z,1.90
2023-01-07T20:01:56.870Z,2.40
2023-01-07T20:04:27.191Z,2.17
2023-01-07T20:06:55.320Z,2.10
2023-01-07T20:09:23.255Z,2.10
2023-01-07T20:11:52.637Z,1.73
2023-01-07T20:14:20.466Z,1.90
2023-01-07T20:16:48.343Z,1.73
2023-01-07T20:19:16.356Z,2.10
2023-01-07T20:21:44.197Z,1.80
2023-01-07T20:24:13.524Z,2.00
2023-01-07T20:26:41.603Z,1.80
2023-01-07T20:29:10.877Z,2.03
2023-01-07T20:31:38.860Z,1.83
2023-01-07T20:34:07.714Z,2.10
2023-01-07T20:36:35.646Z,2.17
2023-01-07T20:39:05.762Z,2.03
2023-01-07T20:41:35.546Z,2.00
2023-01-07T20:44:05.307Z,2.20
2023-01-07T20:46:35.415Z,3.03
2023-01-07T20:49:03.562Z,2.20
2023-01-07T20:51:31.722Z,2.60
2023-01-07T20:53:59.664Z,3.93
2023-01-07T20:56:31.707Z,5.03
2023-01-07T20:58:59.993Z,3.43
2023-01-07T21:01:28.388Z,3.10
2023-01-07T21:03:58.027Z,5.17
2023-01-07T21:06:25.918Z,2.43
2023-01-07T21:08:53.847Z,4.23
2023-01-07T21:11:23.500Z,2.70
2023-01-07T21:13:56.041Z,4.33
2023-01-07T21:16:24.708Z,2.30
2023-01-07T21:18:52.587Z,2.87
2023-01-07T21:21:25.079Z,1.90
2023-01-07T21:23:54.122Z,2.40
2023-01-07T21:26:22.380Z,2.30
2023-01-07T21:28:53.067Z,2.30
2023-01-07T21:31:21.020Z,2.30
2023-01-07T21:33:49.079Z,2.50
2023-01-07T21:36:18.870Z,2.97
2023-01-07T21:38:52.852Z,2.57
2023-01-07T21:41:21.443Z,2.23
2023-01-07T21:43:49.274Z,2.50
2023-01-07T21:46:17.870Z,2.63
2023-01-07T21:48:47.170Z,2.50
2023-01-07T21:51:17.785Z,2.67
2023-01-07T21:53:46.624Z,2.47
2023-01-07T21:56:17.832Z,2.43
2023-01-07T21:58:46.587Z,2.50
2023-01-07T22:01:14.922Z,2.70
2023-01-07T22:03:45.993Z,2.70
2023-01-07T22:06:18.871Z,2.20
2023-01-07T22:08:46.973Z,2.50
2023-01-07T22:11:17.863Z,3.00
2023-01-07T22:13:45.862Z,2.90
2023-01-07T22:16:13.825Z,3.37
2023-01-07T22:18:41.921Z,3.00
2023-01-07T22:21:09.900Z,2.57
2023-01-07T22:23:38.761Z,3.23
2023-01-07T22:26:08.045Z,2.70
2023-01-07T22:28:38.603Z,3.00
2023-01-07T22:31:14.200Z,2.80
2023-01-07T22:33:42.082Z,2.80
2023-01-07T22:36:11.742Z,3.00
2023-01-07T22:38:40.926Z,2.77
2023-01-07T22:41:10.292Z,2.90
2023-01-07T22:43:40.297Z,2.70
2023-01-07T22:46:12.014Z,2.90
2023-01-07T22:48:40.571Z,2.60
2023-01-07T22:51:15.085Z,3.10
2023-01-07T22:53:44.610Z,3.03
2023-01-07T22:56:14.316Z,3.07
2023-01-07T22:58:43.491Z,2.80
2023-01-07T23:01:14.400Z,3.13
2023-01-07T23:03:43.596Z,2.90
2023-01-07T23:06:13.209Z,3.30
2023-01-07T23:08:41.620Z,2.90
2023-01-07T23:11:10.525Z,2.73
2023-01-07T23:13:38.806Z,2.80
2023-01-07T23:16:08.672Z,3.13
2023-01-07T23:18:36.498Z,2.90
2023-01-07T23:21:05.720Z,2.80
2023-01-07T23:23:33.592Z,2.90
2023-01-07T23:26:01.709Z,3.10
2023-01-07T23:28:29.598Z,2.80
2023-01-07T23:31:01.533Z,3.00
2023-01-07T23:33:30.819Z,3.10
2023-01-07T23:36:03.406Z,2.90
2023-01-07T23:38:31.459Z,3.27
2023-01-07T23:41:03.039Z,3.17
2023-01-07T23:43:31.312Z,3.10
2023-01-07T23:45:59.782Z,3.30
2023-01-07T23:48:28.774Z,3.20
2023-01-07T23:51:03.852Z,3.07
2023-01-07T23:53:31.732Z,3.17
2023-01-07T23:55:59.690Z,3.00
2023-01-07T23:58:27.976Z,3.10
